createdAt,value
2018-03-17T00:00:00.403Z,66.94
2018-03-17T00:01:00.409Z,66.85
2018-03-17T00:02:00.422Z,65.91
2018-03-17T00:03:00.422Z,65.62
2018-03-17T00:04:00.437Z,65.24
2018-03-17T00:05:00.441Z,65.05
2018-03-17T00:06:00.447Z,65.53
2018-03-17T00:07:00.453Z,65.43
2018-03-17T00:08:00.456Z,65.53
2018-03-17T00:09:00.465Z,65.43
2018-03-17T00:10:00.473Z,65.72
2018-03-17T00:11:00.474Z,66.28
2018-03-17T00:12:00.487Z,66.19
2018-03-17T00:13:00.486Z,66.19
2018-03-17T00:14:00.493Z,66.28
2018-03-17T00:15:00.504Z,66.28
2018-03-17T00:16:00.509Z,66.28
2018-03-17T00:17:00.513Z,65.81
2018-03-17T00:18:00.526Z,66.00
2018-03-17T00:19:00.531Z,65.72
2018-03-17T00:20:00.532Z,65.72
2018-03-17T00:21:00.545Z,66.19
2018-03-17T00:22:00.547Z,65.72
2018-03-17T00:23:00.556Z,65.43
2018-03-17T00:24:00.563Z,64.96
2018-03-17T00:25:00.571Z,65.15
2018-03-17T00:26:00.571Z,64.96
2018-03-17T00:27:00.581Z,65.05
2018-03-17T00:28:00.584Z,65.24
2018-03-17T00:29:00.598Z,64.86
2018-03-17T00:30:00.599Z,64.58
2018-03-17T00:31:00.602Z,64.58
2018-03-17T00:32:00.620Z,64.96
2018-03-17T00:33:00.616Z,64.77
2018-03-17T00:34:00.625Z,65.62
2018-03-17T00:35:00.629Z,66.19
2018-03-17T00:36:00.636Z,66.28
2018-03-17T00:37:00.648Z,67.03
2018-03-17T00:38:00.648Z,67.32
2018-03-17T00:39:00.657Z,67.22
2018-03-17T00:40:00.663Z,67.22
2018-03-17T00:41:00.680Z,67.03
2018-03-17T00:42:00.676Z,66.94
2018-03-17T00:43:00.686Z,67.22
2018-03-17T00:44:00.695Z,67.32
2018-03-17T00:45:00.704Z,67.98
2018-03-17T00:46:00.707Z,67.98
2018-03-17T00:47:00.718Z,68.17
2018-03-17T00:48:00.717Z,69.12
2018-03-17T00:49:00.723Z,68.74
2018-03-17T00:50:00.737Z,68.27
2018-03-17T00:51:00.732Z,68.08
2018-03-17T00:52:00.745Z,68.08
2018-03-17T00:53:00.745Z,67.51
2018-03-17T00:54:00.753Z,67.41
2018-03-17T00:55:00.768Z,66.94
2018-03-17T00:56:00.775Z,67.13
2018-03-17T00:57:00.777Z,67.41
2018-03-17T00:58:00.783Z,67.89
2018-03-17T00:59:00.788Z,67.79
2018-03-17T01:00:00.791Z,67.89
2018-03-17T01:01:00.797Z,68.27
2018-03-17T01:02:00.817Z,67.89
2018-03-17T01:03:00.808Z,67.13
2018-03-17T01:04:00.815Z,67.32
2018-03-17T01:05:00.832Z,67.60
2018-03-17T01:06:00.831Z,67.60
2018-03-17T01:07:00.839Z,67.79
2018-03-17T01:08:00.852Z,68.27
2018-03-17T01:09:00.851Z,67.51
2018-03-17T01:10:00.860Z,67.32
2018-03-17T01:11:00.873Z,68.27
2018-03-17T01:12:00.866Z,67.89
2018-03-17T01:13:00.872Z,67.41
2018-03-17T01:14:00.887Z,67.60
2018-03-17T01:15:00.885Z,67.41
2018-03-17T01:16:00.897Z,67.60
2018-03-17T01:17:00.904Z,66.85
2018-03-17T01:18:00.903Z,66.85
2018-03-17T01:19:00.911Z,66.85
2018-03-17T01:20:00.919Z,66.38
2018-03-17T01:21:00.928Z,66.66
2018-03-17T01:22:00.934Z,65.62
2018-03-17T01:23:00.943Z,65.53
2018-03-17T01:24:00.942Z,65.05
2018-03-17T01:25:00.957Z,66.00
2018-03-17T01:26:00.964Z,66.00
2018-03-17T01:27:00.967Z,66.28
2018-03-17T01:28:00.974Z,66.94
2018-03-17T01:29:00.976Z,67.32
2018-03-17T01:30:00.985Z,67.22
2018-03-17T01:31:00.991Z,67.98
2018-03-17T01:32:01.001Z,67.60
2018-03-17T01:33:01.011Z,68.27
2018-03-17T01:34:01.012Z,67.51
2018-03-17T01:35:01.023Z,67.32
2018-03-17T01:36:01.020Z,67.32
2018-03-17T01:37:01.027Z,67.13
2018-03-17T01:38:01.032Z,66.38
2018-03-17T01:39:01.042Z,66.85
2018-03-17T01:40:01.046Z,67.32
2018-03-17T01:41:01.051Z,68.46
2018-03-17T01:42:01.061Z,68.27
2018-03-17T01:43:01.073Z,68.36
2018-03-17T01:44:01.077Z,68.08
2018-03-17T01:45:01.083Z,67.89
2018-03-17T01:46:01.092Z,67.98
2018-03-17T01:47:01.089Z,67.98
2018-03-17T01:48:01.101Z,67.98
2018-03-17T01:49:01.109Z,67.51
2018-03-17T01:50:01.120Z,68.36
2018-03-17T01:51:01.118Z,68.74
2018-03-17T01:52:01.129Z,69.31
2018-03-17T01:53:01.131Z,68.74
2018-03-17T01:54:01.134Z,67.79
2018-03-17T01:55:01.139Z,68.08
2018-03-17T01:56:01.157Z,67.32
2018-03-17T01:57:01.152Z,67.32
2018-03-17T01:58:01.160Z,66.19
2018-03-17T01:59:01.166Z,66.28
2018-03-17T02:00:01.180Z,67.22
2018-03-17T02:01:01.178Z,67.51
2018-03-17T02:02:01.184Z,67.89
2018-03-17T02:03:01.190Z,68.74
2018-03-17T02:04:01.195Z,69.12
2018-03-17T02:05:01.202Z,68.84
2018-03-17T02:06:01.209Z,69.02
2018-03-17T02:07:01.214Z,69.12
2018-03-17T02:08:01.219Z,68.46
2018-03-17T02:09:01.226Z,68.84
2018-03-17T02:10:01.237Z,68.17
2018-03-17T02:11:01.238Z,68.17
2018-03-17T02:12:01.245Z,68.27
2018-03-17T02:13:01.263Z,67.89
2018-03-17T02:14:01.257Z,67.79
2018-03-17T02:15:01.264Z,67.60
2018-03-17T02:16:01.275Z,68.08
2018-03-17T02:17:01.282Z,67.70
2018-03-17T02:18:01.284Z,67.79
2018-03-17T02:19:01.293Z,67.79
2018-03-17T02:20:01.302Z,68.27
2018-03-17T02:21:01.300Z,68.27
2018-03-17T02:22:01.314Z,68.27
2018-03-17T02:23:01.318Z,68.36
2018-03-17T02:24:01.320Z,69.12
2018-03-17T02:25:01.331Z,69.40
2018-03-17T02:26:01.331Z,69.68
2018-03-17T02:27:01.339Z,70.54
2018-03-17T02:28:01.345Z,70.54
2018-03-17T02:29:01.350Z,70.82
2018-03-17T02:30:01.363Z,71.39
2018-03-17T02:31:01.362Z,71.67
2018-03-17T02:32:01.373Z,71.30
2018-03-17T02:33:01.375Z,71.07
2018-03-17T02:34:01.385Z,71.64
2018-03-17T02:35:01.388Z,71.16
2018-03-17T02:36:01.393Z,71.39
2018-03-17T02:37:01.403Z,71.16
2018-03-17T02:38:01.412Z,70.31
2018-03-17T02:39:01.420Z,70.82
2018-03-17T02:40:01.429Z,70.44
2018-03-17T02:41:01.430Z,70.06
2018-03-17T02:42:01.437Z,70.54
2018-03-17T02:43:01.439Z,70.16
2018-03-17T02:44:01.443Z,70.06
2018-03-17T02:45:01.457Z,69.78
2018-03-17T02:46:01.461Z,69.56
2018-03-17T02:47:01.468Z,69.27
2018-03-17T02:48:01.468Z,70.16
2018-03-17T02:49:01.475Z,69.93
2018-03-17T02:50:01.492Z,70.40
2018-03-17T02:51:01.486Z,70.54
2018-03-17T02:52:01.498Z,70.16
2018-03-17T02:53:01.502Z,69.59
2018-03-17T02:54:01.512Z,69.68
2018-03-17T02:55:01.517Z,69.40
2018-03-17T02:56:01.536Z,69.59
2018-03-17T02:57:01.530Z,69.21
2018-03-17T02:58:01.532Z,69.40
2018-03-17T02:59:01.542Z,69.12
2018-03-17T03:00:01.545Z,68.71
2018-03-17T03:01:01.552Z,68.65
2018-03-17T03:02:01.562Z,68.17
2018-03-17T03:03:01.562Z,68.27
2018-03-17T03:04:01.566Z,67.85
2018-03-17T03:05:01.573Z,67.66
2018-03-17T03:06:01.580Z,68.27
2018-03-17T03:07:01.592Z,68.55
2018-03-17T03:08:01.594Z,69.49
2018-03-17T03:09:01.599Z,69.49
2018-03-17T03:10:01.607Z,69.49
2018-03-17T03:11:01.616Z,68.55
2018-03-17T03:12:01.623Z,68.36
2018-03-17T03:13:01.628Z,68.74
2018-03-17T03:14:01.637Z,68.36
2018-03-17T03:15:01.643Z,68.46
2018-03-17T03:16:01.643Z,68.55
2018-03-17T03:17:01.650Z,68.93
2018-03-17T03:18:01.664Z,69.31
2018-03-17T03:19:01.669Z,69.21
2018-03-17T03:20:01.672Z,69.40
2018-03-17T03:21:01.674Z,69.49
2018-03-17T03:22:01.685Z,69.40
2018-03-17T03:23:01.689Z,69.31
2018-03-17T03:24:01.697Z,69.49
2018-03-17T03:25:01.712Z,68.55
2018-03-17T03:26:01.702Z,68.27
2018-03-17T03:27:01.710Z,68.46
2018-03-17T03:28:01.716Z,68.65
2018-03-17T03:29:01.723Z,69.12
2018-03-17T03:30:01.730Z,69.21
2018-03-17T03:31:01.738Z,69.59
2018-03-17T03:32:01.747Z,69.68
2018-03-17T03:33:01.747Z,70.06
2018-03-17T03:34:01.760Z,70.35
2018-03-17T03:35:01.766Z,70.82
2018-03-17T03:36:01.765Z,70.63
2018-03-17T03:37:01.771Z,71.11
2018-03-17T03:38:01.782Z,70.92
2018-03-17T03:39:01.785Z,71.20
2018-03-17T03:40:01.790Z,70.73
2018-03-17T03:41:01.795Z,70.44
2018-03-17T03:42:01.810Z,71.01
2018-03-17T03:43:01.822Z,70.35
2018-03-17T03:44:01.814Z,70.35
2018-03-17T03:45:01.823Z,71.01
2018-03-17T03:46:01.834Z,70.73
2018-03-17T03:47:01.831Z,70.73
2018-03-17T03:48:01.848Z,70.92
2018-03-17T03:49:01.850Z,70.92
2018-03-17T03:50:01.860Z,70.92
2018-03-17T03:51:01.858Z,70.82
2018-03-17T03:52:01.865Z,70.73
2018-03-17T03:53:01.871Z,70.73
2018-03-17T03:54:01.877Z,70.73
2018-03-17T03:55:01.882Z,71.30
2018-03-17T03:56:01.895Z,71.30
2018-03-17T03:57:01.901Z,71.39
2018-03-17T03:58:01.902Z,71.39
2018-03-17T03:59:01.906Z,71.39
2018-03-17T04:00:01.914Z,71.39
2018-03-17T04:01:01.919Z,71.48
2018-03-17T04:02:01.933Z,71.39
2018-03-17T04:03:01.936Z,71.48
2018-03-17T04:04:01.944Z,71.20
2018-03-17T04:05:01.951Z,70.73
2018-03-17T04:06:01.956Z,70.63
2018-03-17T04:07:01.957Z,70.92
2018-03-17T04:08:01.972Z,70.82
2018-03-17T04:09:01.973Z,70.59
2018-03-17T04:10:01.980Z,70.92
2018-03-17T04:11:01.984Z,70.25
2018-03-17T04:12:01.993Z,70.82
2018-03-17T04:13:01.993Z,70.44
2018-03-17T04:14:02.006Z,70.88
2018-03-17T04:15:02.013Z,70.69
2018-03-17T04:16:02.015Z,71.07
2018-03-17T04:17:02.021Z,71.35
2018-03-17T04:18:02.030Z,71.64
2018-03-17T04:19:02.029Z,72.11
2018-03-17T04:20:02.047Z,72.30
2018-03-17T04:21:02.047Z,72.02
2018-03-17T04:22:02.053Z,72.67
2018-03-17T04:23:02.052Z,72.77
2018-03-17T04:24:02.057Z,73.33
2018-03-17T04:25:02.070Z,73.33
2018-03-17T04:26:02.069Z,73.33
2018-03-17T04:27:02.088Z,73.33
2018-03-17T04:28:02.081Z,73.71
2018-03-17T04:29:02.094Z,73.71
2018-03-17T04:30:02.100Z,73.33
2018-03-17T04:31:02.103Z,72.11
2018-03-17T04:32:02.105Z,72.02
2018-03-17T04:33:02.118Z,71.92
2018-03-17T04:34:02.116Z,72.49
2018-03-17T04:35:02.122Z,72.86
2018-03-17T04:36:02.132Z,72.96
2018-03-17T04:37:02.134Z,72.67
2018-03-17T04:38:02.145Z,72.49
2018-03-17T04:39:02.152Z,72.77
2018-03-17T04:40:02.164Z,73.52
2018-03-17T04:41:02.161Z,73.71
2018-03-17T04:42:02.168Z,73.81
2018-03-17T04:43:02.169Z,73.90
2018-03-17T04:44:02.183Z,73.62
2018-03-17T04:45:02.180Z,73.62
2018-03-17T04:46:02.192Z,73.90
2018-03-17T04:47:02.192Z,73.62
2018-03-17T04:48:02.204Z,73.62
2018-03-17T04:49:02.208Z,73.62
2018-03-17T04:50:02.216Z,73.62
2018-03-17T04:51:02.215Z,74.00
2018-03-17T04:52:02.222Z,72.77
2018-03-17T04:53:02.227Z,72.30
2018-03-17T04:54:02.234Z,71.64
2018-03-17T04:55:02.239Z,72.30
2018-03-17T04:56:02.247Z,72.86
2018-03-17T04:57:02.253Z,73.43
2018-03-17T04:58:02.257Z,73.71
2018-03-17T04:59:02.271Z,73.90
2018-03-17T05:00:02.327Z,74.38
2018-03-17T05:01:02.281Z,74.85
2018-03-17T05:02:02.288Z,74.38
2018-03-17T05:03:02.292Z,74.66
2018-03-17T05:04:02.291Z,74.38
2018-03-17T05:05:02.297Z,74.85
2018-03-17T05:06:02.311Z,73.90
2018-03-17T05:07:02.314Z,73.52
2018-03-17T05:08:02.325Z,74.09
2018-03-17T05:09:02.324Z,74.38
2018-03-17T05:10:02.328Z,73.81
2018-03-17T05:11:02.338Z,73.81
2018-03-17T05:12:02.345Z,73.43
2018-03-17T05:13:02.345Z,73.24
2018-03-17T05:14:02.351Z,73.24
2018-03-17T05:15:02.361Z,73.33
2018-03-17T05:16:02.363Z,72.86
2018-03-17T05:17:02.370Z,72.96
2018-03-17T05:18:02.381Z,72.49
2018-03-17T05:19:02.389Z,72.02
2018-03-17T05:20:02.388Z,72.02
2018-03-17T05:21:02.392Z,72.77
2018-03-17T05:22:02.405Z,73.43
2018-03-17T05:23:02.404Z,73.52
2018-03-17T05:24:02.410Z,74.19
2018-03-17T05:25:02.423Z,74.19
2018-03-17T05:26:02.428Z,74.66
2018-03-17T05:27:02.433Z,74.47
2018-03-17T05:28:02.440Z,75.13
2018-03-17T05:29:02.447Z,75.32
2018-03-17T05:30:02.463Z,75.23
2018-03-17T05:31:02.461Z,74.95
2018-03-17T05:32:02.457Z,75.13
2018-03-17T05:33:02.470Z,75.51
2018-03-17T05:34:02.470Z,74.95
2018-03-17T05:35:02.478Z,75.23
2018-03-17T05:36:02.487Z,75.23
2018-03-17T05:37:02.486Z,74.95
2018-03-17T05:38:02.497Z,75.13
2018-03-17T05:39:02.505Z,75.79
2018-03-17T05:40:02.505Z,76.17
2018-03-17T05:41:02.510Z,76.55
2018-03-17T05:42:02.519Z,77.12
2018-03-17T05:43:02.530Z,76.64
2018-03-17T05:44:02.533Z,76.93
2018-03-17T05:45:02.538Z,76.93
2018-03-17T05:46:02.540Z,76.74
2018-03-17T05:47:02.545Z,76.64
2018-03-17T05:48:02.557Z,76.83
2018-03-17T05:49:02.562Z,77.02
2018-03-17T05:50:02.567Z,76.93
2018-03-17T05:51:02.567Z,77.87
2018-03-17T05:52:02.588Z,77.87
2018-03-17T05:53:02.591Z,77.69
2018-03-17T05:54:02.591Z,77.69
2018-03-17T05:55:02.591Z,78.44
2018-03-17T05:56:02.602Z,77.87
2018-03-17T05:57:02.603Z,78.06
2018-03-17T05:58:02.612Z,77.40
2018-03-17T05:59:02.614Z,77.59
2018-03-17T06:00:02.621Z,77.50
2018-03-17T06:01:02.631Z,76.93
2018-03-17T06:02:02.631Z,76.64
2018-03-17T06:03:02.643Z,76.45
2018-03-17T06:04:02.641Z,76.45
2018-03-17T06:05:02.653Z,76.55
2018-03-17T06:06:02.654Z,76.45
2018-03-17T06:07:02.658Z,76.26
2018-03-17T06:08:02.666Z,77.50
2018-03-17T06:09:02.670Z,77.87
2018-03-17T06:10:02.682Z,77.87
2018-03-17T06:11:02.689Z,78.25
2018-03-17T06:12:02.698Z,78.25
2018-03-17T06:13:02.698Z,77.78
2018-03-17T06:14:02.710Z,77.97
2018-03-17T06:15:02.707Z,77.97
2018-03-17T06:16:02.718Z,78.63
2018-03-17T06:17:02.721Z,78.25
2018-03-17T06:18:02.727Z,77.87
2018-03-17T06:19:02.732Z,77.21
2018-03-17T06:20:02.737Z,77.69
2018-03-17T06:21:02.744Z,77.40
2018-03-17T06:22:02.744Z,77.59
2018-03-17T06:23:02.749Z,77.31
2018-03-17T06:24:02.754Z,77.31
2018-03-17T06:25:02.763Z,76.64
2018-03-17T06:26:02.774Z,76.45
2018-03-17T06:27:02.777Z,76.55
2018-03-17T06:28:02.778Z,75.79
2018-03-17T06:29:02.789Z,75.13
2018-03-17T06:30:02.789Z,74.85
2018-03-17T06:31:02.801Z,74.95
2018-03-17T06:32:02.805Z,75.13
2018-03-17T06:33:02.807Z,75.32
2018-03-17T06:34:02.812Z,75.13
2018-03-17T06:35:02.817Z,74.19
2018-03-17T06:36:02.827Z,73.62
2018-03-17T06:37:02.828Z,74.19
2018-03-17T06:38:02.835Z,74.85
2018-03-17T06:39:02.839Z,73.90
2018-03-17T06:40:02.845Z,72.86
2018-03-17T06:41:02.851Z,72.86
2018-03-17T06:42:02.863Z,73.05
2018-03-17T06:43:02.861Z,72.77
2018-03-17T06:44:02.871Z,73.81
2018-03-17T06:45:02.877Z,75.98
2018-03-17T06:46:02.880Z,77.78
2018-03-17T06:47:02.885Z,78.25
2018-03-17T06:48:02.891Z,77.87
2018-03-17T06:49:02.896Z,77.69
2018-03-17T06:50:02.908Z,77.97
2018-03-17T06:51:02.906Z,78.78
2018-03-17T06:52:02.914Z,78.59
2018-03-17T06:53:02.920Z,78.50
2018-03-17T06:54:02.925Z,78.68
2018-03-17T06:55:02.934Z,79.29
2018-03-17T06:56:02.941Z,79.25
2018-03-17T06:57:02.941Z,79.67
2018-03-17T06:58:02.951Z,80.62
2018-03-17T06:59:02.953Z,81.27
2018-03-17T07:00:02.956Z,80.71
2018-03-17T07:01:03.017Z,80.90
2018-03-17T07:02:02.971Z,79.76
2018-03-17T07:03:02.973Z,79.76
2018-03-17T07:04:02.979Z,79.67
2018-03-17T07:05:02.986Z,79.10
2018-03-17T07:06:02.991Z,79.19
2018-03-17T07:07:02.999Z,79.67
2018-03-17T07:08:03.013Z,79.86
2018-03-17T07:09:03.012Z,79.86
2018-03-17T07:10:03.023Z,80.71
2018-03-17T07:11:03.020Z,80.90
2018-03-17T07:12:03.029Z,80.90
2018-03-17T07:13:03.035Z,81.23
2018-03-17T07:14:03.033Z,81.90
2018-03-17T07:15:03.039Z,81.99
2018-03-17T07:16:03.044Z,82.65
2018-03-17T07:17:03.062Z,81.99
2018-03-17T07:18:03.055Z,81.99
2018-03-17T07:19:03.060Z,81.80
2018-03-17T07:20:03.066Z,81.23
2018-03-17T07:21:03.072Z,81.46
2018-03-17T07:22:03.084Z,81.37
2018-03-17T07:23:03.081Z,80.90
2018-03-17T07:24:03.089Z,81.18
2018-03-17T07:25:03.091Z,80.80
2018-03-17T07:26:03.104Z,80.33
2018-03-17T07:27:03.103Z,80.71
2018-03-17T07:28:03.108Z,79.95
2018-03-17T07:29:03.115Z,79.38
2018-03-17T07:30:03.128Z,80.80
2018-03-17T07:31:03.132Z,81.09
2018-03-17T07:32:03.142Z,81.27
2018-03-17T07:33:03.135Z,81.56
2018-03-17T07:34:03.149Z,82.60
2018-03-17T07:35:03.153Z,82.88
2018-03-17T07:36:03.158Z,82.69
2018-03-17T07:37:03.164Z,83.17
2018-03-17T07:38:03.165Z,83.92
2018-03-17T07:39:03.173Z,84.01
2018-03-17T07:40:03.176Z,84.07
2018-03-17T07:41:03.186Z,84.82
2018-03-17T07:42:03.193Z,87.18
2018-03-17T07:43:03.198Z,88.60
2018-03-17T07:44:03.201Z,89.36
2018-03-17T07:45:03.207Z,88.89
2018-03-17T07:46:03.216Z,88.79
2018-03-17T07:47:03.212Z,88.70
2018-03-17T07:48:03.218Z,88.17
2018-03-17T07:49:03.224Z,88.46
2018-03-17T07:50:03.229Z,88.55
2018-03-17T07:51:03.242Z,89.40
2018-03-17T07:52:03.239Z,89.97
2018-03-17T07:53:03.244Z,90.44
2018-03-17T07:54:03.252Z,91.01
2018-03-17T07:55:03.261Z,90.91
2018-03-17T07:56:03.261Z,90.82
2018-03-17T07:57:03.265Z,91.44
2018-03-17T07:58:03.270Z,93.04
2018-03-17T07:59:03.277Z,92.94
2018-03-17T08:00:03.283Z,92.94
2018-03-17T08:01:03.287Z,93.32
2018-03-17T08:02:03.295Z,93.13
2018-03-17T08:03:03.303Z,92.47
2018-03-17T08:04:03.304Z,92.76
2018-03-17T08:05:03.314Z,92.80
2018-03-17T08:06:03.314Z,92.14
2018-03-17T08:07:03.324Z,90.63
2018-03-17T08:08:03.324Z,89.50
2018-03-17T08:09:03.341Z,89.50
2018-03-17T08:10:03.339Z,89.78
2018-03-17T08:11:03.343Z,90.63
2018-03-17T08:12:03.346Z,90.25
2018-03-17T08:13:03.350Z,90.44
2018-03-17T08:14:03.356Z,92.19
2018-03-17T08:15:03.361Z,92.76
2018-03-17T08:16:03.379Z,92.66
2018-03-17T08:17:03.377Z,93.04
2018-03-17T08:18:03.382Z,92.85
2018-03-17T08:19:03.389Z,93.13
2018-03-17T08:20:03.393Z,93.23
2018-03-17T08:21:03.395Z,93.89
2018-03-17T08:22:03.407Z,94.18
2018-03-17T08:23:03.407Z,94.27
2018-03-17T08:24:03.437Z,93.61
2018-03-17T08:25:03.422Z,92.66
2018-03-17T08:26:03.418Z,93.23
2018-03-17T08:27:03.429Z,92.94
2018-03-17T08:28:03.435Z,93.51
2018-03-17T08:29:03.439Z,93.99
2018-03-17T08:30:03.439Z,94.93
2018-03-17T08:31:03.444Z,94.84
2018-03-17T08:32:03.448Z,94.65
2018-03-17T08:33:03.459Z,94.08
2018-03-17T08:34:03.508Z,93.99
2018-03-17T08:35:03.469Z,93.80
2018-03-17T08:36:03.471Z,94.27
2018-03-17T08:37:03.475Z,94.22
2018-03-17T08:38:03.485Z,94.32
2018-03-17T08:39:03.484Z,93.94
2018-03-17T08:40:03.496Z,94.03
2018-03-17T08:41:03.500Z,93.56
2018-03-17T08:42:03.505Z,93.09
2018-03-17T08:43:03.505Z,93.94
2018-03-17T08:44:03.510Z,94.60
2018-03-17T08:45:03.515Z,94.41
2018-03-17T08:46:03.527Z,93.94
2018-03-17T08:47:03.526Z,93.66
2018-03-17T08:48:03.532Z,93.37
2018-03-17T08:49:03.541Z,93.18
2018-03-17T08:50:03.543Z,92.52
2018-03-17T08:51:03.552Z,93.09
2018-03-17T08:52:03.556Z,93.56
2018-03-17T08:53:03.577Z,92.90
2018-03-17T08:54:03.574Z,93.09
2018-03-17T08:55:03.572Z,93.66
2018-03-17T08:56:03.578Z,94.13
2018-03-17T08:57:03.585Z,94.13
2018-03-17T08:58:03.584Z,94.70
2018-03-17T08:59:03.596Z,93.66
2018-03-17T09:00:03.605Z,94.89
2018-03-17T09:01:03.604Z,94.79
2018-03-17T09:02:03.613Z,95.92
2018-03-17T09:03:03.616Z,96.49
2018-03-17T09:04:03.616Z,97.44
2018-03-17T09:05:03.623Z,96.49
2018-03-17T09:06:03.633Z,96.49
2018-03-17T09:07:03.638Z,96.21
2018-03-17T09:08:03.637Z,95.92
2018-03-17T09:09:03.645Z,96.96
2018-03-17T09:10:03.654Z,96.30
2018-03-17T09:11:03.658Z,95.73
2018-03-17T09:12:03.665Z,95.64
2018-03-17T09:13:03.665Z,96.49
2018-03-17T09:14:03.669Z,95.36
2018-03-17T09:15:03.682Z,95.54
2018-03-17T09:16:03.683Z,96.11
2018-03-17T09:17:03.694Z,96.30
2018-03-17T09:18:03.714Z,96.21
2018-03-17T09:19:03.696Z,96.68
2018-03-17T09:20:03.712Z,96.59
2018-03-17T09:21:03.715Z,96.40
2018-03-17T09:22:03.719Z,96.59
2018-03-17T09:23:03.722Z,96.87
2018-03-17T09:24:03.728Z,97.34
2018-03-17T09:25:03.736Z,97.25
2018-03-17T09:26:03.740Z,97.06
2018-03-17T09:27:03.739Z,97.06
2018-03-17T09:28:03.742Z,96.96
2018-03-17T09:29:03.749Z,97.72
2018-03-17T09:30:03.760Z,97.72
2018-03-17T09:31:03.765Z,97.63
2018-03-17T09:32:03.770Z,97.15
2018-03-17T09:33:03.776Z,97.06
2018-03-17T09:34:03.777Z,97.34
2018-03-17T09:35:03.782Z,96.87
2018-03-17T09:36:03.787Z,97.44
2018-03-17T09:37:03.799Z,96.96
2018-03-17T09:38:03.798Z,97.25
2018-03-17T09:39:03.803Z,98.38
2018-03-17T09:40:03.814Z,97.53
2018-03-17T09:41:03.815Z,97.25
2018-03-17T09:42:03.827Z,96.87
2018-03-17T09:43:03.829Z,97.06
2018-03-17T09:44:04.834Z,97.25
2018-03-17T09:45:03.838Z,97.34
2018-03-17T09:46:03.847Z,97.77
2018-03-17T09:47:03.853Z,96.92
2018-03-17T09:48:03.856Z,96.73
2018-03-17T09:49:03.864Z,96.45
2018-03-17T09:50:03.869Z,95.31
2018-03-17T09:51:03.868Z,94.08
2018-03-17T09:52:03.873Z,93.70
2018-03-17T09:53:03.881Z,93.18
2018-03-17T09:54:03.885Z,95.45
2018-03-17T09:55:03.895Z,95.64
2018-03-17T09:56:03.902Z,95.92
2018-03-17T09:57:03.910Z,95.92
2018-03-17T09:58:03.910Z,96.21
2018-03-17T09:59:03.914Z,96.68
2018-03-17T10:00:03.926Z,96.78
2018-03-17T10:01:03.930Z,95.73
2018-03-17T10:02:03.937Z,96.49
2018-03-17T10:03:03.942Z,97.15
2018-03-17T10:04:03.947Z,96.68
2018-03-17T10:05:03.957Z,96.87
2018-03-17T10:06:03.954Z,96.96
2018-03-17T10:07:03.970Z,97.15
2018-03-17T10:08:03.966Z,97.53
2018-03-17T10:09:03.970Z,97.53
2018-03-17T10:10:03.984Z,97.11
2018-03-17T10:11:03.982Z,96.45
2018-03-17T10:12:03.986Z,95.69
2018-03-17T10:13:03.994Z,95.03
2018-03-17T10:14:04.001Z,95.64
2018-03-17T10:15:04.013Z,96.87
2018-03-17T10:16:04.008Z,96.87
2018-03-17T10:17:04.021Z,98.38
2018-03-17T10:18:04.030Z,98.71
2018-03-17T10:19:04.030Z,97.39
2018-03-17T10:20:04.033Z,98.33
2018-03-17T10:21:04.042Z,98.33
2018-03-17T10:22:04.047Z,97.67
2018-03-17T10:23:04.050Z,97.01
2018-03-17T10:24:04.060Z,97.53
2018-03-17T10:25:04.068Z,97.01
2018-03-17T10:26:04.066Z,96.92
2018-03-17T10:27:04.079Z,97.20
2018-03-17T10:28:04.085Z,94.65
2018-03-17T10:29:04.087Z,94.27
2018-03-17T10:30:04.090Z,95.12
2018-03-17T10:31:04.099Z,95.12
2018-03-17T10:32:04.102Z,95.97
2018-03-17T10:33:04.114Z,96.16
2018-03-17T10:34:04.161Z,96.16
2018-03-17T10:35:04.119Z,97.20
2018-03-17T10:36:04.168Z,97.39
2018-03-17T10:37:04.131Z,97.30
2018-03-17T10:38:04.142Z,96.92
2018-03-17T10:39:04.145Z,95.40
2018-03-17T10:40:04.154Z,95.40
2018-03-17T10:41:04.154Z,95.21
2018-03-17T10:42:04.168Z,94.27
2018-03-17T10:43:04.172Z,94.46
2018-03-17T10:44:04.174Z,94.65
2018-03-17T10:45:04.188Z,93.42
2018-03-17T10:46:04.190Z,93.42
2018-03-17T10:47:04.191Z,94.08
2018-03-17T10:48:04.198Z,95.50
2018-03-17T10:49:04.204Z,97.11
2018-03-17T10:50:04.211Z,97.39
2018-03-17T10:51:04.219Z,96.64
2018-03-17T10:52:04.231Z,96.54
2018-03-17T10:53:04.235Z,96.64
2018-03-17T10:54:04.232Z,95.07
2018-03-17T10:55:04.245Z,96.40
2018-03-17T10:56:04.247Z,97.06
2018-03-17T10:57:04.253Z,97.53
2018-03-17T10:58:04.263Z,97.91
2018-03-17T10:59:04.273Z,98.66
2018-03-17T11:00:04.285Z,99.71
2018-03-17T11:01:04.281Z,98.95
2018-03-17T11:02:04.286Z,98.95
2018-03-17T11:03:04.292Z,99.61
2018-03-17T11:04:04.299Z,99.99
2018-03-17T11:05:04.305Z,99.71
2018-03-17T11:06:04.413Z,99.80
2018-03-17T11:07:04.318Z,99.99
2018-03-17T11:08:04.322Z,99.80
2018-03-17T11:09:04.323Z,99.52
2018-03-17T11:10:04.334Z,99.14
2018-03-17T11:11:04.335Z,98.66
2018-03-17T11:12:04.345Z,98.19
2018-03-17T11:13:04.347Z,98.76
2018-03-17T11:14:04.352Z,99.71
2018-03-17T11:15:04.358Z,99.33
2018-03-17T11:16:04.369Z,99.99
2018-03-17T11:17:04.375Z,99.99
2018-03-17T11:18:04.375Z,99.85
2018-03-17T11:19:04.379Z,98.90
2018-03-17T11:20:04.384Z,98.33
2018-03-17T11:21:04.391Z,97.20
2018-03-17T11:22:04.395Z,96.40
2018-03-17T11:23:04.527Z,96.21
2018-03-17T11:24:04.408Z,96.45
2018-03-17T11:25:04.414Z,96.45
2018-03-17T11:26:04.421Z,96.45
2018-03-17T11:27:04.424Z,97.39
2018-03-17T11:28:04.430Z,98.05
2018-03-17T11:29:04.437Z,98.57
2018-03-17T11:30:04.449Z,97.34
2018-03-17T11:31:04.453Z,97.34
2018-03-17T11:32:04.462Z,97.91
2018-03-17T11:33:04.460Z,98.10
2018-03-17T11:34:04.467Z,98.57
2018-03-17T11:35:04.477Z,96.78
2018-03-17T11:36:04.483Z,97.81
2018-03-17T11:37:04.485Z,96.68
2018-03-17T11:38:04.496Z,96.30
2018-03-17T11:39:04.495Z,95.54
2018-03-17T11:40:04.502Z,95.12
2018-03-17T11:41:04.512Z,93.80
2018-03-17T11:42:04.518Z,92.66
2018-03-17T11:43:04.524Z,92.38
2018-03-17T11:44:04.531Z,91.91
2018-03-17T11:45:04.531Z,92.29
2018-03-17T11:46:04.542Z,93.04
2018-03-17T11:47:04.549Z,93.04
2018-03-17T11:48:04.562Z,92.94
2018-03-17T11:49:04.554Z,92.94
2018-03-17T11:50:04.559Z,93.99
2018-03-17T11:51:04.566Z,95.31
2018-03-17T11:52:04.578Z,95.64
2018-03-17T11:53:04.587Z,95.64
2018-03-17T11:54:04.590Z,96.02
2018-03-17T11:55:04.589Z,96.45
2018-03-17T11:56:04.603Z,95.64
2018-03-17T11:57:04.602Z,95.45
2018-03-17T11:58:04.615Z,96.11
2018-03-17T11:59:04.614Z,97.15
2018-03-17T12:00:04.622Z,96.59
2018-03-17T12:01:04.626Z,95.26
2018-03-17T12:02:04.634Z,94.32
2018-03-17T12:03:04.643Z,94.18
2018-03-17T12:04:04.648Z,94.27
2018-03-17T12:05:04.651Z,95.59
2018-03-17T12:06:04.663Z,97.25
2018-03-17T12:07:04.661Z,95.50
2018-03-17T12:08:04.669Z,94.08
2018-03-17T12:09:04.674Z,94.74
2018-03-17T12:10:04.736Z,93.94
2018-03-17T12:11:04.692Z,94.27
2018-03-17T12:12:04.692Z,93.99
2018-03-17T12:13:04.700Z,92.94
2018-03-17T12:14:04.709Z,92.47
2018-03-17T12:15:04.721Z,93.32
2018-03-17T12:16:04.723Z,92.85
2018-03-17T12:17:04.728Z,91.81
2018-03-17T12:18:04.735Z,90.68
2018-03-17T12:19:04.739Z,90.86
2018-03-17T12:20:04.742Z,90.49
2018-03-17T12:21:04.751Z,91.43
2018-03-17T12:22:04.752Z,91.91
2018-03-17T12:23:04.764Z,92.29
2018-03-17T12:24:04.768Z,91.91
2018-03-17T12:25:04.771Z,92.38
2018-03-17T12:26:04.780Z,92.85
2018-03-17T12:27:04.785Z,93.32
2018-03-17T12:28:04.789Z,93.32
2018-03-17T12:29:04.802Z,93.61
2018-03-17T12:30:04.809Z,92.57
2018-03-17T12:31:04.816Z,93.04
2018-03-17T12:32:04.819Z,93.56
2018-03-17T12:33:04.840Z,92.80
2018-03-17T12:34:04.836Z,94.41
2018-03-17T12:35:04.839Z,95.26
2018-03-17T12:36:04.840Z,94.27
2018-03-17T12:37:04.844Z,94.84
2018-03-17T12:38:04.856Z,95.59
2018-03-17T12:39:04.863Z,95.03
2018-03-17T12:40:04.864Z,94.18
2018-03-17T12:41:04.876Z,92.38
2018-03-17T12:42:04.876Z,92.57
2018-03-17T12:43:04.882Z,92.94
2018-03-17T12:44:04.887Z,93.13
2018-03-17T12:45:04.899Z,93.13
2018-03-17T12:46:04.909Z,93.32
2018-03-17T12:47:04.910Z,92.66
2018-03-17T12:48:04.917Z,92.76
2018-03-17T12:49:04.920Z,93.32
2018-03-17T12:50:04.930Z,94.27
2018-03-17T12:51:04.936Z,94.37
2018-03-17T12:52:04.944Z,94.27